sensor_id;sensor_type;location;lat;lon;timestamp;P1;durP1;ratioP1;P2;durP2;ratioP2
27925;SDS011;15267;47.838;12.128;2023-10-19T00:01:13;23.35;;;17.77;;
27925;SDS011;15267;47.838;12.128;2023-10-19T00:03:40;21.77;;;17.42;;
27925;SDS011;15267;47.838;12.128;2023-10-19T00:06:06;23.98;;;17.88;;
27925;SDS011;15267;47.838;12.128;2023-10-19T00:08:32;26.15;;;19.77;;
27925;SDS011;15267;47.838;12.128;2023-10-19T00:11:06;24.15;;;18.63;;
27925;SDS011;15267;47.838;12.128;2023-10-19T00:13:32;24.35;;;17.90;;
27925;SDS011;15267;47.838;12.128;2023-10-19T00:16:00;23.67;;;19.08;;
27925;SDS011;15267;47.838;12.128;2023-10-19T00:18:32;26.33;;;19.60;;
27925;SDS011;15267;47.838;12.128;2023-10-19T00:20:59;22.08;;;17.23;;
27925;SDS011;15267;47.838;12.128;2023-10-19T00:23:36;24.17;;;17.60;;
27925;SDS011;15267;47.838;12.128;2023-10-19T00:26:04;22.67;;;18.05;;
27925;SDS011;15267;47.838;12.128;2023-10-19T00:28:36;25.08;;;18.08;;
27925;SDS011;15267;47.838;12.128;2023-10-19T00:31:03;27.83;;;19.00;;
27925;SDS011;15267;47.838;12.128;2023-10-19T00:33:33;22.77;;;18.30;;
27925;SDS011;15267;47.838;12.128;2023-10-19T00:36:02;25.50;;;19.65;;
27925;SDS011;15267;47.838;12.128;2023-10-19T00:38:32;23.75;;;19.13;;
27925;SDS011;15267;47.838;12.128;2023-10-19T00:40:58;25.95;;;20.27;;
27925;SDS011;15267;47.838;12.128;2023-10-19T00:43:29;23.20;;;18.50;;
27925;SDS011;15267;47.838;12.128;2023-10-19T00:46:01;27.35;;;20.08;;
27925;SDS011;15267;47.838;12.128;2023-10-19T00:48:28;24.00;;;19.63;;
27925;SDS011;15267;47.838;12.128;2023-10-19T00:50:54;26.38;;;19.90;;
27925;SDS011;15267;47.838;12.128;2023-10-19T00:53:33;25.40;;;20.23;;
27925;SDS011;15267;47.838;12.128;2023-10-19T00:56:00;24.17;;;18.92;;
27925;SDS011;15267;47.838;12.128;2023-10-19T00:58:27;24.52;;;20.38;;
27925;SDS011;15267;47.838;12.128;2023-10-19T01:00:55;26.00;;;18.88;;
27925;SDS011;15267;47.838;12.128;2023-10-19T01:03:21;25.75;;;20.73;;
27925;SDS011;15267;47.838;12.128;2023-10-19T01:05:47;26.35;;;21.33;;
27925;SDS011;15267;47.838;12.128;2023-10-19T01:08:13;23.77;;;18.63;;
27925;SDS011;15267;47.838;12.128;2023-10-19T01:10:49;26.90;;;20.20;;
27925;SDS011;15267;47.838;12.128;2023-10-19T01:13:17;27.48;;;21.33;;
27925;SDS011;15267;47.838;12.128;2023-10-19T01:15:51;25.48;;;20.08;;
27925;SDS011;15267;47.838;12.128;2023-10-19T01:18:17;28.00;;;19.48;;
27925;SDS011;15267;47.838;12.128;2023-10-19T01:20:44;28.35;;;21.52;;
27925;SDS011;15267;47.838;12.128;2023-10-19T01:23:15;22.23;;;17.85;;
27925;SDS011;15267;47.838;12.128;2023-10-19T01:25:46;22.55;;;18.80;;
27925;SDS011;15267;47.838;12.128;2023-10-19T01:28:31;25.63;;;20.23;;
27925;SDS011;15267;47.838;12.128;2023-10-19T01:31:07;24.33;;;18.88;;
27925;SDS011;15267;47.838;12.128;2023-10-19T01:33:33;27.33;;;20.33;;
27925;SDS011;15267;47.838;12.128;2023-10-19T01:36:00;26.80;;;20.67;;
27925;SDS011;15267;47.838;12.128;2023-10-19T01:38:56;27.55;;;21.17;;
27925;SDS011;15267;47.838;12.128;2023-10-19T01:41:26;26.02;;;19.90;;
27925;SDS011;15267;47.838;12.128;2023-10-19T01:43:53;27.92;;;20.33;;
27925;SDS011;15267;47.838;12.128;2023-10-19T01:46:19;21.65;;;17.98;;
27925;SDS011;15267;47.838;12.128;2023-10-19T01:48:49;24.10;;;18.80;;
27925;SDS011;15267;47.838;12.128;2023-10-19T01:51:20;24.13;;;19.90;;
27925;SDS011;15267;47.838;12.128;2023-10-19T01:53:48;26.02;;;19.70;;
27925;SDS011;15267;47.838;12.128;2023-10-19T01:56:15;23.35;;;18.13;;
27925;SDS011;15267;47.838;12.128;2023-10-19T01:58:42;25.70;;;19.48;;
27925;SDS011;15267;47.838;12.128;2023-10-19T02:01:09;26.38;;;21.42;;
27925;SDS011;15267;47.838;12.128;2023-10-19T02:03:38;26.10;;;20.92;;
27925;SDS011;15267;47.838;12.128;2023-10-19T02:06:08;24.08;;;19.88;;
27925;SDS011;15267;47.838;12.128;2023-10-19T02:08:41;25.55;;;20.02;;
27925;SDS011;15267;47.838;12.128;2023-10-19T02:11:08;26.00;;;20.73;;
27925;SDS011;15267;47.838;12.128;2023-10-19T02:13:43;25.30;;;20.50;;
27925;SDS011;15267;47.838;12.128;2023-10-19T02:16:11;26.27;;;19.67;;
27925;SDS011;15267;47.838;12.128;2023-10-19T02:18:37;26.73;;;21.20;;
27925;SDS011;15267;47.838;12.128;2023-10-19T02:21:03;25.73;;;20.05;;
27925;SDS011;15267;47.838;12.128;2023-10-19T02:23:31;28.65;;;22.33;;
27925;SDS011;15267;47.838;12.128;2023-10-19T02:25:59;24.48;;;19.77;;
27925;SDS011;15267;47.838;12.128;2023-10-19T02:28:25;25.20;;;20.52;;
27925;SDS011;15267;47.838;12.128;2023-10-19T02:30:56;26.13;;;20.17;;
27925;SDS011;15267;47.838;12.128;2023-10-19T02:33:22;27.27;;;20.45;;
27925;SDS011;15267;47.838;12.128;2023-10-19T02:35:51;25.40;;;20.23;;
27925;SDS011;15267;47.838;12.128;2023-10-19T02:38:17;28.38;;;23.20;;
27925;SDS011;15267;47.838;12.128;2023-10-19T02:40:43;27.98;;;22.80;;
27925;SDS011;15267;47.838;12.128;2023-10-19T02:43:11;26.67;;;21.25;;
27925;SDS011;15267;47.838;12.128;2023-10-19T02:45:37;27.80;;;22.17;;
27925;SDS011;15267;47.838;12.128;2023-10-19T02:48:03;28.75;;;22.77;;
27925;SDS011;15267;47.838;12.128;2023-10-19T02:50:29;29.42;;;23.35;;
27925;SDS011;15267;47.838;12.128;2023-10-19T02:52:56;28.73;;;23.83;;
27925;SDS011;15267;47.838;12.128;2023-10-19T02:55:22;30.50;;;23.73;;
27925;SDS011;15267;47.838;12.128;2023-10-19T02:57:49;29.65;;;23.90;;
27925;SDS011;15267;47.838;12.128;2023-10-19T03:00:15;32.15;;;24.75;;
27925;SDS011;15267;47.838;12.128;2023-10-19T03:02:45;29.17;;;21.65;;
27925;SDS011;15267;47.838;12.128;2023-10-19T03:05:11;25.75;;;21.75;;
27925;SDS011;15267;47.838;12.128;2023-10-19T03:07:41;27.50;;;21.83;;
27925;SDS011;15267;47.838;12.128;2023-10-19T03:10:10;27.33;;;21.35;;
27925;SDS011;15267;47.838;12.128;2023-10-19T03:13:09;30.27;;;21.90;;
27925;SDS011;15267;47.838;12.128;2023-10-19T03:15:35;29.73;;;22.70;;
27925;SDS011;15267;47.838;12.128;2023-10-19T03:18:01;29.63;;;23.75;;
27925;SDS011;15267;47.838;12.128;2023-10-19T03:20:29;24.23;;;20.42;;
27925;SDS011;15267;47.838;12.128;2023-10-19T03:22:58;26.67;;;20.92;;
27925;SDS011;15267;47.838;12.128;2023-10-19T03:25:26;29.10;;;23.70;;
27925;SDS011;15267;47.838;12.128;2023-10-19T03:28:11;33.10;;;24.40;;
27925;SDS011;15267;47.838;12.128;2023-10-19T03:30:37;30.60;;;22.50;;
27925;SDS011;15267;47.838;12.128;2023-10-19T03:33:06;24.92;;;20.02;;
27925;SDS011;15267;47.838;12.128;2023-10-19T03:35:37;27.00;;;20.10;;
27925;SDS011;15267;47.838;12.128;2023-10-19T03:38:03;29.55;;;23.55;;
27925;SDS011;15267;47.838;12.128;2023-10-19T03:40:43;24.95;;;20.35;;
27925;SDS011;15267;47.838;12.128;2023-10-19T03:43:17;28.85;;;20.70;;
27925;SDS011;15267;47.838;12.128;2023-10-19T03:45:46;26.13;;;20.58;;
27925;SDS011;15267;47.838;12.128;2023-10-19T03:48:17;28.92;;;20.33;;
27925;SDS011;15267;47.838;12.128;2023-10-19T03:50:43;27.27;;;21.33;;
27925;SDS011;15267;47.838;12.128;2023-10-19T03:53:09;25.13;;;20.05;;
27925;SDS011;15267;47.838;12.128;2023-10-19T03:55:37;25.77;;;20.75;;
27925;SDS011;15267;47.838;12.128;2023-10-19T03:58:03;26.23;;;21.23;;
27925;SDS011;15267;47.838;12.128;2023-10-19T04:00:30;29.30;;;20.95;;
27925;SDS011;15267;47.838;12.128;2023-10-19T04:02:58;28.35;;;21.88;;
27925;SDS011;15267;47.838;12.128;2023-10-19T04:05:24;26.17;;;22.13;;
27925;SDS011;15267;47.838;12.128;2023-10-19T04:07:51;29.65;;;22.17;;
27925;SDS011;15267;47.838;12.128;2023-10-19T04:10:21;26.05;;;20.85;;
27925;SDS011;15267;47.838;12.128;2023-10-19T04:12:59;28.58;;;20.73;;
27925;SDS011;15267;47.838;12.128;2023-10-19T04:15:25;27.85;;;22.23;;
27925;SDS011;15267;47.838;12.128;2023-10-19T04:17:51;28.38;;;21.35;;
27925;SDS011;15267;47.838;12.128;2023-10-19T04:20:23;25.88;;;21.67;;
27925;SDS011;15267;47.838;12.128;2023-10-19T04:22:52;30.50;;;22.75;;
27925;SDS011;15267;47.838;12.128;2023-10-19T04:25:19;29.90;;;22.48;;
27925;SDS011;15267;47.838;12.128;2023-10-19T04:27:46;29.45;;;21.90;;
27925;SDS011;15267;47.838;12.128;2023-10-19T04:30:14;27.27;;;22.40;;
27925;SDS011;15267;47.838;12.128;2023-10-19T04:32:46;31.30;;;25.38;;
27925;SDS011;15267;47.838;12.128;2023-10-19T04:35:13;31.27;;;22.98;;
27925;SDS011;15267;47.838;12.128;2023-10-19T04:37:46;31.60;;;23.42;;
27925;SDS011;15267;47.838;12.128;2023-10-19T04:40:12;31.60;;;23.38;;
27925;SDS011;15267;47.838;12.128;2023-10-19T04:42:38;26.42;;;22.48;;
27925;SDS011;15267;47.838;12.128;2023-10-19T04:45:04;29.17;;;22.00;;
27925;SDS011;15267;47.838;12.128;2023-10-19T04:47:30;30.05;;;22.90;;
27925;SDS011;15267;47.838;12.128;2023-10-19T04:49:58;33.97;;;23.67;;
27925;SDS011;15267;47.838;12.128;2023-10-19T04:52:24;24.70;;;20.42;;
27925;SDS011;15267;47.838;12.128;2023-10-19T04:54:49;28.70;;;22.90;;
27925;SDS011;15267;47.838;12.128;2023-10-19T04:57:15;28.65;;;22.42;;
27925;SDS011;15267;47.838;12.128;2023-10-19T04:59:41;30.58;;;23.52;;
27925;SDS011;15267;47.838;12.128;2023-10-19T05:02:10;29.92;;;23.45;;
27925;SDS011;15267;47.838;12.128;2023-10-19T05:04:36;28.75;;;24.02;;
27925;SDS011;15267;47.838;12.128;2023-10-19T05:07:02;29.45;;;24.08;;
27925;SDS011;15267;47.838;12.128;2023-10-19T05:09:29;28.05;;;23.30;;
27925;SDS011;15267;47.838;12.128;2023-10-19T05:11:54;31.92;;;24.75;;
27925;SDS011;15267;47.838;12.128;2023-10-19T05:14:22;36.20;;;25.85;;
27925;SDS011;15267;47.838;12.128;2023-10-19T05:16:48;31.27;;;23.65;;
27925;SDS011;15267;47.838;12.128;2023-10-19T05:19:14;29.58;;;24.55;;
27925;SDS011;15267;47.838;12.128;2023-10-19T05:21:40;32.05;;;26.17;;
27925;SDS011;15267;47.838;12.128;2023-10-19T05:24:06;30.85;;;23.15;;
27925;SDS011;15267;47.838;12.128;2023-10-19T05:26:35;32.25;;;24.27;;
27925;SDS011;15267;47.838;12.128;2023-10-19T05:29:01;33.97;;;24.35;;
27925;SDS011;15267;47.838;12.128;2023-10-19T05:31:27;29.50;;;24.05;;
27925;SDS011;15267;47.838;12.128;2023-10-19T05:33:56;30.95;;;24.48;;
27925;SDS011;15267;47.838;12.128;2023-10-19T05:36:22;31.20;;;25.73;;
27925;SDS011;15267;47.838;12.128;2023-10-19T05:38:48;32.08;;;24.33;;
27925;SDS011;15267;47.838;12.128;2023-10-19T05:41:16;32.03;;;23.80;;
27925;SDS011;15267;47.838;12.128;2023-10-19T05:43:43;31.27;;;25.80;;
27925;SDS011;15267;47.838;12.128;2023-10-19T05:46:09;34.95;;;27.88;;
27925;SDS011;15267;47.838;12.128;2023-10-19T05:48:35;34.92;;;28.23;;
27925;SDS011;15267;47.838;12.128;2023-10-19T05:51:01;32.63;;;25.17;;
27925;SDS011;15267;47.838;12.128;2023-10-19T05:53:27;30.55;;;23.63;;
27925;SDS011;15267;47.838;12.128;2023-10-19T05:55:55;28.25;;;23.15;;
27925;SDS011;15267;47.838;12.128;2023-10-19T05:58:21;29.17;;;23.45;;
27925;SDS011;15267;47.838;12.128;2023-10-19T06:00:46;32.20;;;24.00;;
27925;SDS011;15267;47.838;12.128;2023-10-19T06:03:14;30.50;;;24.30;;
27925;SDS011;15267;47.838;12.128;2023-10-19T06:05:40;31.73;;;23.20;;
27925;SDS011;15267;47.838;12.128;2023-10-19T06:08:06;32.72;;;25.00;;
27925;SDS011;15267;47.838;12.128;2023-10-19T06:10:35;30.30;;;23.90;;
27925;SDS011;15267;47.838;12.128;2023-10-19T06:13:04;29.45;;;24.52;;
27925;SDS011;15267;47.838;12.128;2023-10-19T06:15:34;29.75;;;23.02;;
27925;SDS011;15267;47.838;12.128;2023-10-19T06:18:00;31.95;;;24.67;;
27925;SDS011;15267;47.838;12.128;2023-10-19T06:20:26;31.27;;;24.45;;
27925;SDS011;15267;47.838;12.128;2023-10-19T06:22:53;30.27;;;24.52;;
27925;SDS011;15267;47.838;12.128;2023-10-19T06:25:20;28.30;;;23.17;;
27925;SDS011;15267;47.838;12.128;2023-10-19T06:27:47;30.85;;;24.00;;
27925;SDS011;15267;47.838;12.128;2023-10-19T06:30:14;29.05;;;23.63;;
27925;SDS011;15267;47.838;12.128;2023-10-19T06:32:56;32.13;;;25.70;;
27925;SDS011;15267;47.838;12.128;2023-10-19T06:35:26;36.10;;;24.92;;
27925;SDS011;15267;47.838;12.128;2023-10-19T06:37:52;36.92;;;25.48;;
27925;SDS011;15267;47.838;12.128;2023-10-19T06:40:20;33.78;;;26.15;;
27925;SDS011;15267;47.838;12.128;2023-10-19T06:42:47;30.38;;;25.02;;
27925;SDS011;15267;47.838;12.128;2023-10-19T06:45:13;31.63;;;25.13;;
27925;SDS011;15267;47.838;12.128;2023-10-19T06:47:40;31.30;;;25.35;;
27925;SDS011;15267;47.838;12.128;2023-10-19T06:50:07;34.40;;;25.25;;
27925;SDS011;15267;47.838;12.128;2023-10-19T06:52:35;33.63;;;26.52;;
27925;SDS011;15267;47.838;12.128;2023-10-19T06:55:01;33.03;;;26.30;;
27925;SDS011;15267;47.838;12.128;2023-10-19T06:57:27;32.05;;;25.55;;
27925;SDS011;15267;47.838;12.128;2023-10-19T06:59:53;32.97;;;25.80;;
27925;SDS011;15267;47.838;12.128;2023-10-19T07:02:19;31.75;;;25.25;;
27925;SDS011;15267;47.838;12.128;2023-10-19T07:04:45;32.97;;;25.60;;
27925;SDS011;15267;47.838;12.128;2023-10-19T07:07:12;31.92;;;26.45;;
27925;SDS011;15267;47.838;12.128;2023-10-19T07:09:39;31.73;;;25.70;;
27925;SDS011;15267;47.838;12.128;2023-10-19T07:12:06;35.03;;;26.15;;
27925;SDS011;15267;47.838;12.128;2023-10-19T07:14:33;38.17;;;26.95;;
27925;SDS011;15267;47.838;12.128;2023-10-19T07:16:59;38.15;;;27.38;;
27925;SDS011;15267;47.838;12.128;2023-10-19T07:19:25;35.80;;;26.60;;
27925;SDS011;15267;47.838;12.128;2023-10-19T07:21:51;39.85;;;27.83;;
27925;SDS011;15267;47.838;12.128;2023-10-19T07:24:25;39.38;;;28.02;;
27925;SDS011;15267;47.838;12.128;2023-10-19T07:26:51;35.55;;;26.27;;
27925;SDS011;15267;47.838;12.128;2023-10-19T07:29:30;34.50;;;26.65;;
27925;SDS011;15267;47.838;12.128;2023-10-19T07:31:56;33.17;;;26.42;;
27925;SDS011;15267;47.838;12.128;2023-10-19T07:34:23;40.33;;;28.55;;
27925;SDS011;15267;47.838;12.128;2023-10-19T07:36:53;33.65;;;27.33;;
27925;SDS011;15267;47.838;12.128;2023-10-19T07:39:19;32.22;;;26.00;;
27925;SDS011;15267;47.838;12.128;2023-10-19T07:41:45;34.53;;;27.10;;
27925;SDS011;15267;47.838;12.128;2023-10-19T07:44:12;36.13;;;26.35;;
27925;SDS011;15267;47.838;12.128;2023-10-19T07:46:38;36.42;;;26.23;;
27925;SDS011;15267;47.838;12.128;2023-10-19T07:49:04;33.33;;;26.45;;
27925;SDS011;15267;47.838;12.128;2023-10-19T07:51:30;34.65;;;25.33;;
27925;SDS011;15267;47.838;12.128;2023-10-19T07:53:56;34.78;;;24.77;;
27925;SDS011;15267;47.838;12.128;2023-10-19T07:56:22;36.47;;;25.00;;
27925;SDS011;15267;47.838;12.128;2023-10-19T07:58:48;33.13;;;25.95;;
27925;SDS011;15267;47.838;12.128;2023-10-19T08:01:14;33.38;;;24.75;;
27925;SDS011;15267;47.838;12.128;2023-10-19T08:03:40;30.58;;;25.40;;
27925;SDS011;15267;47.838;12.128;2023-10-19T08:06:06;33.65;;;24.90;;
27925;SDS011;15267;47.838;12.128;2023-10-19T08:08:32;30.08;;;24.52;;
27925;SDS011;15267;47.838;12.128;2023-10-19T08:11:00;32.13;;;24.92;;
27925;SDS011;15267;47.838;12.128;2023-10-19T08:13:26;30.98;;;24.98;;
27925;SDS011;15267;47.838;12.128;2023-10-19T08:15:52;32.38;;;25.50;;
27925;SDS011;15267;47.838;12.128;2023-10-19T08:18:18;31.73;;;24.55;;
27925;SDS011;15267;47.838;12.128;2023-10-19T08:20:45;28.20;;;24.13;;
27925;SDS011;15267;47.838;12.128;2023-10-19T08:23:11;30.35;;;23.48;;
27925;SDS011;15267;47.838;12.128;2023-10-19T08:25:43;30.00;;;22.90;;
27925;SDS011;15267;47.838;12.128;2023-10-19T08:28:09;28.77;;;23.15;;
27925;SDS011;15267;47.838;12.128;2023-10-19T08:30:36;29.25;;;25.13;;
27925;SDS011;15267;47.838;12.128;2023-10-19T08:33:02;37.97;;;29.40;;
27925;SDS011;15267;47.838;12.128;2023-10-19T08:35:28;29.65;;;24.00;;
27925;SDS011;15267;47.838;12.128;2023-10-19T08:37:56;33.75;;;24.92;;
27925;SDS011;15267;47.838;12.128;2023-10-19T08:40:22;29.15;;;22.90;;
27925;SDS011;15267;47.838;12.128;2023-10-19T08:42:51;28.83;;;21.52;;
27925;SDS011;15267;47.838;12.128;2023-10-19T08:45:18;24.38;;;21.08;;
27925;SDS011;15267;47.838;12.128;2023-10-19T08:50:12;26.40;;;20.70;;
27925;SDS011;15267;47.838;12.128;2023-10-19T08:52:39;26.63;;;20.27;;
27925;SDS011;15267;47.838;12.128;2023-10-19T08:55:06;23.42;;;19.30;;
27925;SDS011;15267;47.838;12.128;2023-10-19T08:57:34;23.83;;;18.17;;
27925;SDS011;15267;47.838;12.128;2023-10-19T09:00:00;20.90;;;17.60;;
27925;SDS011;15267;47.838;12.128;2023-10-19T09:02:31;23.42;;;17.92;;
27925;SDS011;15267;47.838;12.128;2023-10-19T09:04:58;23.65;;;18.13;;
27925;SDS011;15267;47.838;12.128;2023-10-19T09:07:25;24.05;;;17.30;;
27925;SDS011;15267;47.838;12.128;2023-10-19T09:09:55;23.98;;;19.30;;
27925;SDS011;15267;47.838;12.128;2023-10-19T09:12:22;22.58;;;18.17;;
27925;SDS011;15267;47.838;12.128;2023-10-19T09:14:48;22.63;;;18.13;;
27925;SDS011;15267;47.838;12.128;2023-10-19T09:17:15;23.45;;;18.48;;
27925;SDS011;15267;47.838;12.128;2023-10-19T09:19:43;26.20;;;22.05;;
27925;SDS011;15267;47.838;12.128;2023-10-19T09:22:12;28.65;;;21.10;;
27925;SDS011;15267;47.838;12.128;2023-10-19T09:24:44;23.77;;;19.55;;
27925;SDS011;15267;47.838;12.128;2023-10-19T09:27:10;24.45;;;18.35;;
27925;SDS011;15267;47.838;12.128;2023-10-19T09:29:37;27.00;;;20.00;;
27925;SDS011;15267;47.838;12.128;2023-10-19T09:32:03;25.13;;;18.73;;
27925;SDS011;15267;47.838;12.128;2023-10-19T09:34:30;25.05;;;18.65;;
27925;SDS011;15267;47.838;12.128;2023-10-19T09:36:58;23.05;;;18.90;;
27925;SDS011;15267;47.838;12.128;2023-10-19T09:39:26;24.65;;;18.55;;
27925;SDS011;15267;47.838;12.128;2023-10-19T09:41:58;24.30;;;17.63;;
27925;SDS011;15267;47.838;12.128;2023-10-19T09:44:26;24.15;;;18.40;;
27925;SDS011;15267;47.838;12.128;2023-10-19T09:46:56;27.60;;;17.38;;
27925;SDS011;15267;47.838;12.128;2023-10-19T09:49:23;24.23;;;16.42;;
27925;SDS011;15267;47.838;12.128;2023-10-19T09:51:49;19.85;;;14.98;;
27925;SDS011;15267;47.838;12.128;2023-10-19T09:54:34;19.88;;;15.25;;
27925;SDS011;15267;47.838;12.128;2023-10-19T09:57:03;20.02;;;15.07;;
27925;SDS011;15267;47.838;12.128;2023-10-19T09:59:38;21.67;;;14.23;;
27925;SDS011;15267;47.838;12.128;2023-10-19T10:02:06;24.10;;;14.50;;
27925;SDS011;15267;47.838;12.128;2023-10-19T10:04:33;21.55;;;13.55;;
27925;SDS011;15267;47.838;12.128;2023-10-19T10:07:04;22.35;;;13.63;;
27925;SDS011;15267;47.838;12.128;2023-10-19T10:09:31;19.15;;;14.50;;
27925;SDS011;15267;47.838;12.128;2023-10-19T10:12:12;19.58;;;14.48;;
27925;SDS011;15267;47.838;12.128;2023-10-19T10:14:41;22.17;;;16.02;;
27925;SDS011;15267;47.838;12.128;2023-10-19T10:17:18;22.20;;;15.90;;
27925;SDS011;15267;47.838;12.128;2023-10-19T10:19:44;21.85;;;14.93;;
27925;SDS011;15267;47.838;12.128;2023-10-19T10:22:11;20.77;;;15.23;;
27925;SDS011;15267;47.838;12.128;2023-10-19T10:24:40;16.80;;;14.90;;
27925;SDS011;15267;47.838;12.128;2023-10-19T10:27:06;19.63;;;14.70;;
27925;SDS011;15267;47.838;12.128;2023-10-19T10:29:33;18.20;;;14.65;;
27925;SDS011;15267;47.838;12.128;2023-10-19T10:31:58;18.05;;;14.40;;
27925;SDS011;15267;47.838;12.128;2023-10-19T10:37:03;17.33;;;14.10;;
27925;SDS011;15267;47.838;12.128;2023-10-19T10:39:39;22.05;;;15.25;;
27925;SDS011;15267;47.838;12.128;2023-10-19T10:42:06;18.38;;;14.93;;
27925;SDS011;15267;47.838;12.128;2023-10-19T10:44:35;23.40;;;14.60;;
27925;SDS011;15267;47.838;12.128;2023-10-19T10:47:08;17.83;;;14.23;;
27925;SDS011;15267;47.838;12.128;2023-10-19T10:52:22;17.52;;;14.48;;
27925;SDS011;15267;47.838;12.128;2023-10-19T10:54:49;15.82;;;13.35;;
27925;SDS011;15267;47.838;12.128;2023-10-19T10:57:15;21.38;;;14.18;;
27925;SDS011;15267;47.838;12.128;2023-10-19T10:59:41;18.67;;;13.48;;
27925;SDS011;15267;47.838;12.128;2023-10-19T11:02:17;15.07;;;13.35;;
27925;SDS011;15267;47.838;12.128;2023-10-19T11:04:44;19.58;;;13.68;;
27925;SDS011;15267;47.838;12.128;2023-10-19T11:07:17;15.82;;;13.48;;
27925;SDS011;15267;47.838;12.128;2023-10-19T11:12:10;16.48;;;13.55;;
27925;SDS011;15267;47.838;12.128;2023-10-19T11:14:36;16.88;;;13.90;;
27925;SDS011;15267;47.838;12.128;2023-10-19T11:17:14;15.93;;;12.18;;
27925;SDS011;15267;47.838;12.128;2023-10-19T11:19:40;16.58;;;13.25;;
27925;SDS011;15267;47.838;12.128;2023-10-19T11:22:09;17.67;;;12.57;;
27925;SDS011;15267;47.838;12.128;2023-10-19T11:24:35;15.15;;;11.27;;
27925;SDS011;15267;47.838;12.128;2023-10-19T11:27:05;14.10;;;10.75;;
27925;SDS011;15267;47.838;12.128;2023-10-19T11:29:32;16.95;;;12.07;;
27925;SDS011;15267;47.838;12.128;2023-10-19T11:32:02;14.40;;;11.07;;
27925;SDS011;15267;47.838;12.128;2023-10-19T11:34:28;18.80;;;12.40;;
27925;SDS011;15267;47.838;12.128;2023-10-19T11:36:57;15.85;;;10.98;;
27925;SDS011;15267;47.838;12.128;2023-10-19T11:39:25;13.60;;;11.63;;
27925;SDS011;15267;47.838;12.128;2023-10-19T11:41:51;15.43;;;12.07;;
27925;SDS011;15267;47.838;12.128;2023-10-19T11:44:18;15.88;;;13.27;;
27925;SDS011;15267;47.838;12.128;2023-10-19T11:46:44;17.75;;;12.25;;
27925;SDS011;15267;47.838;12.128;2023-10-19T11:49:10;16.23;;;11.98;;
27925;SDS011;15267;47.838;12.128;2023-10-19T11:51:36;15.68;;;11.63;;
27925;SDS011;15267;47.838;12.128;2023-10-19T11:54:04;18.50;;;11.77;;
27925;SDS011;15267;47.838;12.128;2023-10-19T11:56:33;18.20;;;12.90;;
27925;SDS011;15267;47.838;12.128;2023-10-19T11:58:59;16.42;;;13.13;;
27925;SDS011;15267;47.838;12.128;2023-10-19T12:01:26;18.05;;;12.35;;
27925;SDS011;15267;47.838;12.128;2023-10-19T12:03:54;15.60;;;11.68;;
27925;SDS011;15267;47.838;12.128;2023-10-19T12:06:20;17.08;;;11.55;;
27925;SDS011;15267;47.838;12.128;2023-10-19T12:08:48;14.63;;;10.73;;
27925;SDS011;15267;47.838;12.128;2023-10-19T12:11:14;12.32;;;9.32;;
27925;SDS011;15267;47.838;12.128;2023-10-19T12:13:42;9.95;;;8.27;;
27925;SDS011;15267;47.838;12.128;2023-10-19T12:16:11;15.18;;;8.93;;
27925;SDS011;15267;47.838;12.128;2023-10-19T12:18:44;16.40;;;10.02;;
27925;SDS011;15267;47.838;12.128;2023-10-19T12:21:14;11.98;;;7.82;;
27925;SDS011;15267;47.838;12.128;2023-10-19T12:23:40;15.32;;;7.10;;
27925;SDS011;15267;47.838;12.128;2023-10-19T12:26:06;9.65;;;6.88;;
27925;SDS011;15267;47.838;12.128;2023-10-19T12:28:38;9.85;;;6.68;;
27925;SDS011;15267;47.838;12.128;2023-10-19T12:31:05;12.27;;;7.07;;
27925;SDS011;15267;47.838;12.128;2023-10-19T12:33:33;12.55;;;7.18;;
27925;SDS011;15267;47.838;12.128;2023-10-19T12:35:59;10.50;;;7.43;;
27925;SDS011;15267;47.838;12.128;2023-10-19T12:38:25;9.80;;;7.38;;
27925;SDS011;15267;47.838;12.128;2023-10-19T12:40:52;15.20;;;6.65;;
27925;SDS011;15267;47.838;12.128;2023-10-19T12:43:19;8.13;;;6.30;;
27925;SDS011;15267;47.838;12.128;2023-10-19T12:45:47;10.95;;;6.05;;
27925;SDS011;15267;47.838;12.128;2023-10-19T12:48:20;11.77;;;5.68;;
27925;SDS011;15267;47.838;12.128;2023-10-19T12:50:47;9.73;;;5.10;;
27925;SDS011;15267;47.838;12.128;2023-10-19T12:53:13;8.43;;;5.00;;
27925;SDS011;15267;47.838;12.128;2023-10-19T12:55:39;7.63;;;4.18;;
27925;SDS011;15267;47.838;12.128;2023-10-19T12:58:08;7.65;;;4.03;;
27925;SDS011;15267;47.838;12.128;2023-10-19T13:00:37;6.97;;;3.20;;
27925;SDS011;15267;47.838;12.128;2023-10-19T13:03:09;6.32;;;2.65;;
27925;SDS011;15267;47.838;12.128;2023-10-19T13:05:38;3.97;;;2.75;;
27925;SDS011;15267;47.838;12.128;2023-10-19T13:08:05;6.03;;;2.40;;
27925;SDS011;15267;47.838;12.128;2023-10-19T13:10:32;2.92;;;1.83;;
27925;SDS011;15267;47.838;12.128;2023-10-19T13:13:01;5.43;;;1.70;;
27925;SDS011;15267;47.838;12.128;2023-10-19T13:15:28;3.60;;;1.73;;
27925;SDS011;15267;47.838;12.128;2023-10-19T13:17:56;4.40;;;1.80;;
27925;SDS011;15267;47.838;12.128;2023-10-19T13:20:23;2.35;;;1.42;;
27925;SDS011;15267;47.838;12.128;2023-10-19T13:22:50;4.20;;;1.60;;
27925;SDS011;15267;47.838;12.128;2023-10-19T13:25:16;5.85;;;2.22;;
27925;SDS011;15267;47.838;12.128;2023-10-19T13:27:43;3.83;;;1.80;;
27925;SDS011;15267;47.838;12.128;2023-10-19T13:30:11;2.20;;;1.70;;
27925;SDS011;15267;47.838;12.128;2023-10-19T13:32:37;5.28;;;2.08;;
27925;SDS011;15267;47.838;12.128;2023-10-19T13:35:03;10.18;;;5.88;;
27925;SDS011;15267;47.838;12.128;2023-10-19T13:37:30;7.75;;;5.25;;
27925;SDS011;15267;47.838;12.128;2023-10-19T13:39:56;5.72;;;2.40;;
27925;SDS011;15267;47.838;12.128;2023-10-19T13:42:23;3.90;;;1.92;;
27925;SDS011;15267;47.838;12.128;2023-10-19T13:44:49;4.60;;;2.03;;
27925;SDS011;15267;47.838;12.128;2023-10-19T13:47:15;4.03;;;2.22;;
27925;SDS011;15267;47.838;12.128;2023-10-19T13:49:41;6.43;;;2.50;;
27925;SDS011;15267;47.838;12.128;2023-10-19T13:52:07;5.55;;;2.65;;
27925;SDS011;15267;47.838;12.128;2023-10-19T13:54:36;5.32;;;2.58;;
27925;SDS011;15267;47.838;12.128;2023-10-19T13:57:02;4.82;;;2.65;;
27925;SDS011;15267;47.838;12.128;2023-10-19T13:59:29;4.70;;;2.08;;
27925;SDS011;15267;47.838;12.128;2023-10-19T14:01:55;9.65;;;2.20;;
27925;SDS011;15267;47.838;12.128;2023-10-19T14:04:21;4.15;;;1.85;;
27925;SDS011;15267;47.838;12.128;2023-10-19T14:06:48;6.57;;;3.50;;
27925;SDS011;15267;47.838;12.128;2023-10-19T14:09:15;7.32;;;4.90;;
27925;SDS011;15267;47.838;12.128;2023-10-19T14:11:42;9.38;;;5.88;;
27925;SDS011;15267;47.838;12.128;2023-10-19T14:14:09;9.43;;;6.30;;
27925;SDS011;15267;47.838;12.128;2023-10-19T14:16:36;11.63;;;7.13;;
27925;SDS011;15267;47.838;12.128;2023-10-19T14:19:02;9.48;;;6.97;;
27925;SDS011;15267;47.838;12.128;2023-10-19T14:21:29;15.43;;;7.30;;
27925;SDS011;15267;47.838;12.128;2023-10-19T14:23:55;10.27;;;7.10;;
27925;SDS011;15267;47.838;12.128;2023-10-19T14:26:21;10.90;;;7.20;;
27925;SDS011;15267;47.838;12.128;2023-10-19T14:28:47;9.82;;;7.45;;